sensor_id;sensor_type;location;lat;lon;timestamp;P1;durP1;ratioP1;P2;durP2;ratioP2
934;SDS011;454;53.254;10.400;2024-01-15T05:01:53;0.65;;;0.60;;
934;SDS011;454;53.254;10.400;2024-01-15T05:04:21;0.30;;;0.30;;
934;SDS011;454;53.254;10.400;2024-01-15T05:06:47;9.38;;;1.00;;
934;SDS011;454;53.254;10.400;2024-01-15T05:09:14;0.73;;;0.70;;
934;SDS011;454;53.254;10.400;2024-01-15T05:11:41;2.38;;;0.90;;
934;SDS011;454;53.254;10.400;2024-01-15T05:14:07;17.25;;;1.50;;
934;SDS011;454;53.254;10.400;2024-01-15T05:16:34;2.55;;;0.60;;
934;SDS011;454;53.254;10.400;2024-01-15T05:19:02;0.70;;;0.70;;
934;SDS011;454;53.254;10.400;2024-01-15T05:21:29;1.40;;;1.30;;
934;SDS011;454;53.254;10.400;2024-01-15T05:23:56;2.10;;;1.70;;
934;SDS011;454;53.254;10.400;2024-01-15T05:26:22;2.90;;;1.20;;
934;SDS011;454;53.254;10.400;2024-01-15T05:28:49;5.90;;;0.80;;
934;SDS011;454;53.254;10.400;2024-01-15T05:31:16;2.47;;;0.98;;
934;SDS011;454;53.254;10.400;2024-01-15T05:33:43;11.20;;;1.58;;
934;SDS011;454;53.254;10.400;2024-01-15T05:36:11;1.58;;;0.98;;
934;SDS011;454;53.254;10.400;2024-01-15T05:38:37;1.23;;;1.13;;
934;SDS011;454;53.254;10.400;2024-01-15T05:41:04;0.95;;;0.95;;
934;SDS011;454;53.254;10.400;2024-01-15T05:43:31;3.80;;;1.73;;
934;SDS011;454;53.254;10.400;2024-01-15T05:45:58;3.58;;;1.92;;
934;SDS011;454;53.254;10.400;2024-01-15T05:48:25;1.85;;;1.85;;
934;SDS011;454;53.254;10.400;2024-01-15T05:50:51;1.10;;;1.10;;
934;SDS011;454;53.254;10.400;2024-01-15T05:53:19;1.67;;;1.10;;
934;SDS011;454;53.254;10.400;2024-01-15T05:55:46;1.85;;;1.75;;
934;SDS011;454;53.254;10.400;2024-01-15T05:58:13;5.25;;;1.65;;
934;SDS011;454;53.254;10.400;2024-01-15T06:00:40;1.50;;;1.10;;
934;SDS011;454;53.254;10.400;2024-01-15T06:03:07;1.40;;;1.38;;
934;SDS011;454;53.254;10.400;2024-01-15T06:05:33;3.92;;;1.92;;
934;SDS011;454;53.254;10.400;2024-01-15T06:08:00;0.82;;;0.82;;
934;SDS011;454;53.254;10.400;2024-01-15T06:10:28;2.83;;;1.45;;
934;SDS011;454;53.254;10.400;2024-01-15T06:12:55;0.98;;;0.98;;
934;SDS011;454;53.254;10.400;2024-01-15T06:15:22;1.23;;;1.17;;
934;SDS011;454;53.254;10.400;2024-01-15T06:17:49;1.67;;;1.67;;
934;SDS011;454;53.254;10.400;2024-01-15T06:20:16;9.98;;;1.98;;
934;SDS011;454;53.254;10.400;2024-01-15T06:22:43;1.30;;;0.90;;
934;SDS011;454;53.254;10.400;2024-01-15T06:25:09;3.30;;;3.08;;
934;SDS011;454;53.254;10.400;2024-01-15T06:27:37;3.17;;;2.92;;
934;SDS011;454;53.254;10.400;2024-01-15T06:30:05;7.70;;;2.47;;
934;SDS011;454;53.254;10.400;2024-01-15T06:32:32;4.93;;;2.03;;
934;SDS011;454;53.254;10.400;2024-01-15T06:34:59;0.95;;;0.80;;
934;SDS011;454;53.254;10.400;2024-01-15T06:37:25;5.13;;;1.98;;
934;SDS011;454;53.254;10.400;2024-01-15T06:39:52;2.33;;;2.17;;
934;SDS011;454;53.254;10.400;2024-01-15T06:42:19;1.38;;;1.02;;
934;SDS011;454;53.254;10.400;2024-01-15T06:44:48;1.73;;;1.40;;
934;SDS011;454;53.254;10.400;2024-01-15T06:47:15;1.10;;;1.00;;
934;SDS011;454;53.254;10.400;2024-01-15T06:49:42;3.22;;;1.10;;
934;SDS011;454;53.254;10.400;2024-01-15T06:52:09;1.67;;;0.82;;
934;SDS011;454;53.254;10.400;2024-01-15T06:54:36;2.42;;;1.58;;
934;SDS011;454;53.254;10.400;2024-01-15T06:57:03;5.20;;;1.55;;
934;SDS011;454;53.254;10.400;2024-01-15T06:59:31;1.23;;;1.20;;
934;SDS011;454;53.254;10.400;2024-01-15T07:01:59;0.98;;;0.98;;
934;SDS011;454;53.254;10.400;2024-01-15T07:04:26;8.85;;;0.90;;
934;SDS011;454;53.254;10.400;2024-01-15T07:06:53;3.30;;;1.67;;
934;SDS011;454;53.254;10.400;2024-01-15T07:09:19;2.75;;;1.15;;
934;SDS011;454;53.254;10.400;2024-01-15T07:11:46;1.63;;;0.75;;
934;SDS011;454;53.254;10.400;2024-01-15T07:14:13;5.70;;;1.08;;
934;SDS011;454;53.254;10.400;2024-01-15T07:16:40;0.60;;;0.57;;
934;SDS011;454;53.254;10.400;2024-01-15T07:19:08;0.93;;;0.93;;
934;SDS011;454;53.254;10.400;2024-01-15T07:21:34;2.50;;;1.48;;
934;SDS011;454;53.254;10.400;2024-01-15T07:24:01;2.88;;;0.93;;
934;SDS011;454;53.254;10.400;2024-01-15T07:26:29;1.75;;;0.55;;
934;SDS011;454;53.254;10.400;2024-01-15T07:28:56;9.02;;;0.65;;
934;SDS011;454;53.254;10.400;2024-01-15T07:31:23;2.75;;;1.42;;
934;SDS011;454;53.254;10.400;2024-01-15T07:33:50;0.70;;;0.43;;
934;SDS011;454;53.254;10.400;2024-01-15T07:36:18;2.33;;;1.10;;
934;SDS011;454;53.254;10.400;2024-01-15T07:38:44;2.15;;;0.55;;
934;SDS011;454;53.254;10.400;2024-01-15T07:41:12;0.55;;;0.55;;
934;SDS011;454;53.254;10.400;2024-01-15T07:43:39;4.40;;;0.95;;
934;SDS011;454;53.254;10.400;2024-01-15T07:46:06;1.10;;;0.55;;
934;SDS011;454;53.254;10.400;2024-01-15T07:48:33;2.17;;;1.05;;
934;SDS011;454;53.254;10.400;2024-01-15T07:51:00;1.35;;;1.25;;
934;SDS011;454;53.254;10.400;2024-01-15T07:53:28;0.60;;;0.60;;
934;SDS011;454;53.254;10.400;2024-01-15T07:55:55;1.20;;;1.20;;
934;SDS011;454;53.254;10.400;2024-01-15T07:58:21;1.33;;;0.98;;
934;SDS011;454;53.254;10.400;2024-01-15T08:00:48;2.65;;;1.02;;
934;SDS011;454;53.254;10.400;2024-01-15T08:03:15;1.70;;;1.60;;
934;SDS011;454;53.254;10.400;2024-01-15T08:05:41;1.23;;;1.17;;
934;SDS011;454;53.254;10.400;2024-01-15T08:08:08;4.07;;;1.80;;
934;SDS011;454;53.254;10.400;2024-01-15T08:10:36;0.25;;;0.25;;
934;SDS011;454;53.254;10.400;2024-01-15T08:13:03;0.40;;;0.40;;
934;SDS011;454;53.254;10.400;2024-01-15T08:15:32;0.85;;;0.50;;
934;SDS011;454;53.254;10.400;2024-01-15T08:17:59;1.85;;;0.63;;
934;SDS011;454;53.254;10.400;2024-01-15T08:20:26;2.95;;;0.50;;
934;SDS011;454;53.254;10.400;2024-01-15T08:22:53;2.50;;;1.75;;
934;SDS011;454;53.254;10.400;2024-01-15T08:25:19;0.40;;;0.40;;
934;SDS011;454;53.254;10.400;2024-01-15T08:27:47;0.30;;;0.30;;
934;SDS011;454;53.254;10.400;2024-01-15T08:30:14;4.88;;;1.00;;
934;SDS011;454;53.254;10.400;2024-01-15T08:32:42;1.00;;;0.98;;
934;SDS011;454;53.254;10.400;2024-01-15T08:35:08;1.63;;;0.40;;
934;SDS011;454;53.254;10.400;2024-01-15T08:37:35;0.40;;;0.40;;
934;SDS011;454;53.254;10.400;2024-01-15T08:40:03;0.20;;;0.20;;
934;SDS011;454;53.254;10.400;2024-01-15T08:42:30;18.13;;;1.20;;
934;SDS011;454;53.254;10.400;2024-01-15T08:44:58;0.20;;;0.20;;
934;SDS011;454;53.254;10.400;2024-01-15T08:47:25;2.15;;;0.43;;
934;SDS011;454;53.254;10.400;2024-01-15T08:49:52;0.60;;;0.60;;
934;SDS011;454;53.254;10.400;2024-01-15T08:52:19;0.35;;;0.35;;
934;SDS011;454;53.254;10.400;2024-01-15T08:54:46;0.45;;;0.45;;
934;SDS011;454;53.254;10.400;2024-01-15T08:57:13;1.20;;;1.20;;
934;SDS011;454;53.254;10.400;2024-01-15T08:59:39;2.28;;;0.50;;
934;SDS011;454;53.254;10.400;2024-01-15T09:02:07;0.57;;;0.57;;
934;SDS011;454;53.254;10.400;2024-01-15T09:04:34;0.43;;;0.30;;
934;SDS011;454;53.254;10.400;2024-01-15T09:07:01;0.10;;;0.10;;
934;SDS011;454;53.254;10.400;2024-01-15T09:09:28;0.70;;;0.70;;
934;SDS011;454;53.254;10.400;2024-01-15T09:11:54;0.68;;;0.47;;
934;SDS011;454;53.254;10.400;2024-01-15T09:14:21;2.00;;;1.90;;
934;SDS011;454;53.254;10.400;2024-01-15T09:16:49;2.28;;;0.50;;
934;SDS011;454;53.254;10.400;2024-01-15T09:19:17;0.47;;;0.47;;
934;SDS011;454;53.254;10.400;2024-01-15T09:21:44;1.50;;;0.35;;
934;SDS011;454;53.254;10.400;2024-01-15T09:24:10;0.70;;;0.70;;
934;SDS011;454;53.254;10.400;2024-01-15T09:26:37;2.05;;;0.60;;
934;SDS011;454;53.254;10.400;2024-01-15T09:29:04;0.60;;;0.60;;
934;SDS011;454;53.254;10.400;2024-01-15T09:31:31;0.20;;;0.20;;
934;SDS011;454;53.254;10.400;2024-01-15T09:33:57;0.43;;;0.43;;
934;SDS011;454;53.254;10.400;2024-01-15T09:36:26;0.50;;;0.30;;
934;SDS011;454;53.254;10.400;2024-01-15T09:38:53;2.00;;;1.88;;
934;SDS011;454;53.254;10.400;2024-01-15T09:41:20;0.22;;;0.22;;
934;SDS011;454;53.254;10.400;2024-01-15T09:43:46;0.30;;;0.30;;
934;SDS011;454;53.254;10.400;2024-01-15T09:46:14;0.25;;;0.25;;
934;SDS011;454;53.254;10.400;2024-01-15T09:48:42;0.22;;;0.22;;
934;SDS011;454;53.254;10.400;2024-01-15T09:51:09;0.65;;;0.65;;
934;SDS011;454;53.254;10.400;2024-01-15T09:53:37;4.80;;;0.45;;
934;SDS011;454;53.254;10.400;2024-01-15T09:56:05;0.40;;;0.40;;
934;SDS011;454;53.254;10.400;2024-01-15T09:58:32;0.43;;;0.43;;
934;SDS011;454;53.254;10.400;2024-01-15T10:01:00;0.80;;;0.80;;
934;SDS011;454;53.254;10.400;2024-01-15T10:03:28;0.30;;;0.30;;
934;SDS011;454;53.254;10.400;2024-01-15T10:05:55;0.30;;;0.30;;
934;SDS011;454;53.254;10.400;2024-01-15T10:08:25;0.40;;;0.40;;
934;SDS011;454;53.254;10.400;2024-01-15T10:10:53;0.63;;;0.50;;
934;SDS011;454;53.254;10.400;2024-01-15T10:13:20;5.10;;;0.90;;
934;SDS011;454;53.254;10.400;2024-01-15T10:15:48;0.82;;;0.60;;
934;SDS011;454;53.254;10.400;2024-01-15T10:18:15;2.65;;;0.88;;
934;SDS011;454;53.254;10.400;2024-01-15T10:20:42;2.55;;;1.42;;
934;SDS011;454;53.254;10.400;2024-01-15T10:23:08;0.80;;;0.75;;
934;SDS011;454;53.254;10.400;2024-01-15T10:25:35;3.15;;;2.90;;
934;SDS011;454;53.254;10.400;2024-01-15T10:28:04;1.55;;;0.60;;
934;SDS011;454;53.254;10.400;2024-01-15T10:30:31;5.72;;;4.13;;
934;SDS011;454;53.254;10.400;2024-01-15T10:32:59;0.52;;;0.52;;
934;SDS011;454;53.254;10.400;2024-01-15T10:35:26;1.33;;;1.33;;
934;SDS011;454;53.254;10.400;2024-01-15T10:37:54;1.55;;;0.60;;
934;SDS011;454;53.254;10.400;2024-01-15T10:40:21;1.67;;;1.67;;
934;SDS011;454;53.254;10.400;2024-01-15T10:42:47;1.85;;;0.57;;
934;SDS011;454;53.254;10.400;2024-01-15T10:45:16;0.80;;;0.55;;
934;SDS011;454;53.254;10.400;2024-01-15T10:47:42;2.08;;;0.63;;
934;SDS011;454;53.254;10.400;2024-01-15T10:50:10;3.70;;;1.42;;
934;SDS011;454;53.254;10.400;2024-01-15T10:52:37;2.00;;;1.33;;
934;SDS011;454;53.254;10.400;2024-01-15T10:55:06;1.55;;;1.45;;
934;SDS011;454;53.254;10.400;2024-01-15T10:57:34;1.10;;;0.80;;
934;SDS011;454;53.254;10.400;2024-01-15T11:00:02;4.68;;;2.33;;
934;SDS011;454;53.254;10.400;2024-01-15T11:02:32;1.30;;;1.20;;
934;SDS011;454;53.254;10.400;2024-01-15T11:05:00;1.17;;;1.17;;
934;SDS011;454;53.254;10.400;2024-01-15T11:07:27;1.27;;;1.17;;
934;SDS011;454;53.254;10.400;2024-01-15T11:09:55;1.35;;;1.10;;
934;SDS011;454;53.254;10.400;2024-01-15T11:12:23;1.48;;;1.42;;
934;SDS011;454;53.254;10.400;2024-01-15T11:14:51;2.83;;;0.77;;
934;SDS011;454;53.254;10.400;2024-01-15T11:17:19;1.05;;;1.00;;
934;SDS011;454;53.254;10.400;2024-01-15T11:19:48;0.90;;;0.90;;
934;SDS011;454;53.254;10.400;2024-01-15T11:25:14;0.60;;;0.60;;
934;SDS011;454;53.254;10.400;2024-01-15T11:27:41;1.42;;;1.42;;
934;SDS011;454;53.254;10.400;2024-01-15T11:30:10;2.65;;;1.02;;
934;SDS011;454;53.254;10.400;2024-01-15T11:32:38;1.00;;;0.90;;
934;SDS011;454;53.254;10.400;2024-01-15T11:35:08;0.55;;;0.55;;
934;SDS011;454;53.254;10.400;2024-01-15T11:37:56;3.60;;;1.00;;
934;SDS011;454;53.254;10.400;2024-01-15T11:40:36;1.20;;;1.20;;
934;SDS011;454;53.254;10.400;2024-01-15T11:43:04;1.95;;;1.25;;
934;SDS011;454;53.254;10.400;2024-01-15T11:45:32;5.70;;;1.30;;
934;SDS011;454;53.254;10.400;2024-01-15T11:48:09;1.42;;;1.08;;
934;SDS011;454;53.254;10.400;2024-01-15T11:50:40;1.67;;;1.20;;
934;SDS011;454;53.254;10.400;2024-01-15T11:53:11;2.15;;;2.08;;
934;SDS011;454;53.254;10.400;2024-01-15T11:55:44;10.75;;;2.83;;
934;SDS011;454;53.254;10.400;2024-01-15T11:58:13;2.03;;;1.90;;
934;SDS011;454;53.254;10.400;2024-01-15T12:00:42;2.10;;;1.77;;
934;SDS011;454;53.254;10.400;2024-01-15T12:03:09;3.38;;;1.98;;
934;SDS011;454;53.254;10.400;2024-01-15T12:05:36;3.28;;;3.05;;
934;SDS011;454;53.254;10.400;2024-01-15T12:08:05;3.60;;;1.75;;
934;SDS011;454;53.254;10.400;2024-01-15T12:10:36;1.75;;;1.65;;
934;SDS011;454;53.254;10.400;2024-01-15T12:13:04;1.40;;;1.40;;
934;SDS011;454;53.254;10.400;2024-01-15T12:15:35;1.40;;;1.40;;
934;SDS011;454;53.254;10.400;2024-01-15T12:18:03;0.98;;;0.98;;
934;SDS011;454;53.254;10.400;2024-01-15T12:20:30;1.02;;;1.02;;
934;SDS011;454;53.254;10.400;2024-01-15T12:22:58;0.70;;;0.70;;
934;SDS011;454;53.254;10.400;2024-01-15T12:25:27;3.45;;;1.77;;
934;SDS011;454;53.254;10.400;2024-01-15T12:27:55;1.67;;;1.38;;
934;SDS011;454;53.254;10.400;2024-01-15T12:30:22;0.82;;;0.82;;
934;SDS011;454;53.254;10.400;2024-01-15T12:32:49;0.70;;;0.70;;
934;SDS011;454;53.254;10.400;2024-01-15T12:35:16;2.75;;;0.90;;
934;SDS011;454;53.254;10.400;2024-01-15T12:37:42;0.63;;;0.63;;
934;SDS011;454;53.254;10.400;2024-01-15T12:40:11;0.70;;;0.70;;
934;SDS011;454;53.254;10.400;2024-01-15T12:42:41;0.55;;;0.55;;
934;SDS011;454;53.254;10.400;2024-01-15T12:45:09;1.48;;;1.00;;
934;SDS011;454;53.254;10.400;2024-01-15T12:47:36;1.00;;;0.82;;
934;SDS011;454;53.254;10.400;2024-01-15T12:50:06;1.15;;;1.15;;
934;SDS011;454;53.254;10.400;2024-01-15T12:52:33;0.80;;;0.80;;
934;SDS011;454;53.254;10.400;2024-01-15T12:55:00;0.50;;;0.50;;
934;SDS011;454;53.254;10.400;2024-01-15T12:57:27;0.40;;;0.40;;
934;SDS011;454;53.254;10.400;2024-01-15T12:59:55;0.80;;;0.80;;
934;SDS011;454;53.254;10.400;2024-01-15T13:02:22;0.45;;;0.45;;
934;SDS011;454;53.254;10.400;2024-01-15T13:04:49;0.65;;;0.65;;
934;SDS011;454;53.254;10.400;2024-01-15T13:07:16;1.38;;;1.13;;
934;SDS011;454;53.254;10.400;2024-01-15T13:09:42;1.08;;;1.00;;
934;SDS011;454;53.254;10.400;2024-01-15T13:12:09;3.75;;;2.47;;
934;SDS011;454;53.254;10.400;2024-01-15T13:14:36;1.00;;;1.00;;
934;SDS011;454;53.254;10.400;2024-01-15T13:17:04;2.53;;;2.33;;
934;SDS011;454;53.254;10.400;2024-01-15T13:19:31;1.95;;;1.85;;
934;SDS011;454;53.254;10.400;2024-01-15T13:21:58;0.98;;;0.98;;
934;SDS011;454;53.254;10.400;2024-01-15T13:24:26;2.75;;;2.60;;
934;SDS011;454;53.254;10.400;2024-01-15T13:26:53;1.60;;;1.35;;
934;SDS011;454;53.254;10.400;2024-01-15T13:29:19;1.42;;;1.35;;
934;SDS011;454;53.254;10.400;2024-01-15T13:31:46;7.22;;;2.15;;
934;SDS011;454;53.254;10.400;2024-01-15T13:34:14;3.15;;;2.67;;
934;SDS011;454;53.254;10.400;2024-01-15T13:36:41;2.88;;;2.40;;
934;SDS011;454;53.254;10.400;2024-01-15T13:39:08;4.15;;;2.05;;
934;SDS011;454;53.254;10.400;2024-01-15T13:41:35;3.25;;;2.90;;
934;SDS011;454;53.254;10.400;2024-01-15T13:44:02;1.67;;;1.17;;
934;SDS011;454;53.254;10.400;2024-01-15T13:46:29;1.65;;;0.82;;
934;SDS011;454;53.254;10.400;2024-01-15T13:48:56;1.33;;;1.30;;
934;SDS011;454;53.254;10.400;2024-01-15T13:51:24;3.30;;;2.72;;
934;SDS011;454;53.254;10.400;2024-01-15T13:53:51;7.72;;;2.60;;
934;SDS011;454;53.254;10.400;2024-01-15T13:56:18;1.63;;;1.50;;
934;SDS011;454;53.254;10.400;2024-01-15T13:58:45;0.75;;;0.75;;
934;SDS011;454;53.254;10.400;2024-01-15T14:01:13;2.22;;;2.03;;
934;SDS011;454;53.254;10.400;2024-01-15T14:03:39;1.55;;;1.48;;
934;SDS011;454;53.254;10.400;2024-01-15T14:06:06;2.47;;;1.80;;
934;SDS011;454;53.254;10.400;2024-01-15T14:08:37;2.50;;;2.25;;
934;SDS011;454;53.254;10.400;2024-01-15T14:11:04;2.03;;;1.83;;
934;SDS011;454;53.254;10.400;2024-01-15T14:13:31;1.02;;;0.90;;
934;SDS011;454;53.254;10.400;2024-01-15T14:15:58;2.05;;;1.23;;
934;SDS011;454;53.254;10.400;2024-01-15T14:18:26;1.20;;;0.63;;
934;SDS011;454;53.254;10.400;2024-01-15T14:20:52;0.85;;;0.85;;
934;SDS011;454;53.254;10.400;2024-01-15T14:23:19;0.70;;;0.60;;
934;SDS011;454;53.254;10.400;2024-01-15T14:25:47;2.03;;;1.10;;
934;SDS011;454;53.254;10.400;2024-01-15T14:28:14;1.95;;;1.13;;
934;SDS011;454;53.254;10.400;2024-01-15T14:30:41;0.85;;;0.82;;
934;SDS011;454;53.254;10.400;2024-01-15T14:33:07;3.10;;;2.90;;
934;SDS011;454;53.254;10.400;2024-01-15T14:35:34;8.30;;;4.97;;
934;SDS011;454;53.254;10.400;2024-01-15T14:38:01;4.38;;;4.07;;
934;SDS011;454;53.254;10.400;2024-01-15T14:40:28;2.78;;;2.05;;
934;SDS011;454;53.254;10.400;2024-01-15T14:42:56;1.30;;;1.20;;
934;SDS011;454;53.254;10.400;2024-01-15T14:45:22;1.67;;;1.60;;
934;SDS011;454;53.254;10.400;2024-01-15T14:47:52;6.93;;;1.52;;
934;SDS011;454;53.254;10.400;2024-01-15T14:50:19;0.80;;;0.80;;
934;SDS011;454;53.254;10.400;2024-01-15T14:52:45;0.77;;;0.77;;
934;SDS011;454;53.254;10.400;2024-01-15T14:55:12;0.70;;;0.70;;
934;SDS011;454;53.254;10.400;2024-01-15T14:57:39;0.30;;;0.30;;
934;SDS011;454;53.254;10.400;2024-01-15T15:00:07;1.10;;;1.10;;
934;SDS011;454;53.254;10.400;2024-01-15T15:02:34;1.92;;;1.92;;
934;SDS011;454;53.254;10.400;2024-01-15T15:05:02;1.20;;;1.10;;
934;SDS011;454;53.254;10.400;2024-01-15T15:07:29;1.17;;;1.17;;
934;SDS011;454;53.254;10.400;2024-01-15T15:09:56;1.98;;;1.90;;
934;SDS011;454;53.254;10.400;2024-01-15T15:12:23;1.17;;;1.10;;
934;SDS011;454;53.254;10.400;2024-01-15T15:14:50;0.80;;;0.80;;
934;SDS011;454;53.254;10.400;2024-01-15T15:17:18;0.68;;;0.65;;
934;SDS011;454;53.254;10.400;2024-01-15T15:19:44;1.00;;;1.00;;
934;SDS011;454;53.254;10.400;2024-01-15T15:22:11;0.45;;;0.45;;
934;SDS011;454;53.254;10.400;2024-01-15T15:24:38;0.85;;;0.85;;
934;SDS011;454;53.254;10.400;2024-01-15T15:27:04;0.30;;;0.30;;
934;SDS011;454;53.254;10.400;2024-01-15T15:29:32;0.35;;;0.35;;
934;SDS011;454;53.254;10.400;2024-01-15T15:32:00;0.63;;;0.60;;
934;SDS011;454;53.254;10.400;2024-01-15T15:34:28;0.60;;;0.60;;
934;SDS011;454;53.254;10.400;2024-01-15T15:36:55;1.10;;;0.55;;
934;SDS011;454;53.254;10.400;2024-01-15T15:39:22;1.33;;;0.82;;
934;SDS011;454;53.254;10.400;2024-01-15T15:41:49;0.60;;;0.60;;
934;SDS011;454;53.254;10.400;2024-01-15T15:44:15;0.70;;;0.70;;
934;SDS011;454;53.254;10.400;2024-01-15T15:46:42;1.02;;;1.02;;
934;SDS011;454;53.254;10.400;2024-01-15T15:49:09;1.10;;;1.10;;
934;SDS011;454;53.254;10.400;2024-01-15T15:51:37;2.65;;;1.35;;
934;SDS011;454;53.254;10.400;2024-01-15T15:54:06;1.13;;;0.98;;
934;SDS011;454;53.254;10.400;2024-01-15T15:56:32;2.35;;;1.23;;
934;SDS011;454;53.254;10.400;2024-01-15T15:59:03;0.60;;;0.60;;
934;SDS011;454;53.254;10.400;2024-01-15T16:01:30;1.00;;;0.90;;
934;SDS011;454;53.254;10.400;2024-01-15T16:03:57;0.70;;;0.70;;
934;SDS011;454;53.254;10.400;2024-01-15T16:06:24;0.95;;;0.95;;
934;SDS011;454;53.254;10.400;2024-01-15T16:08:52;1.17;;;1.17;;
934;SDS011;454;53.254;10.400;2024-01-15T16:11:19;1.48;;;1.48;;
934;SDS011;454;53.254;10.400;2024-01-15T16:13:46;0.65;;;0.65;;
934;SDS011;454;53.254;10.400;2024-01-15T16:16:13;4.03;;;1.17;;
934;SDS011;454;53.254;10.400;2024-01-15T16:18:40;0.93;;;0.93;;
934;SDS011;454;53.254;10.400;2024-01-15T16:21:06;1.50;;;1.40;;
934;SDS011;454;53.254;10.400;2024-01-15T16:23:33;0.95;;;0.95;;
934;SDS011;454;53.254;10.400;2024-01-15T16:26:01;2.63;;;1.00;;
934;SDS011;454;53.254;10.400;2024-01-15T16:28:28;1.85;;;0.98;;
934;SDS011;454;53.254;10.400;2024-01-15T16:30:55;2.30;;;2.10;;
934;SDS011;454;53.254;10.400;2024-01-15T16:33:21;6.60;;;5.95;;
934;SDS011;454;53.254;10.400;2024-01-15T16:35:48;1.58;;;1.48;;
934;SDS011;454;53.254;10.400;2024-01-15T16:38:15;1.00;;;1.00;;
934;SDS011;454;53.254;10.400;2024-01-15T16:40:42;4.25;;;2.80;;
934;SDS011;454;53.254;10.400;2024-01-15T16:43:10;7.40;;;3.90;;
934;SDS011;454;53.254;10.400;2024-01-15T16:45:37;3.75;;;3.47;;
934;SDS011;454;53.254;10.400;2024-01-15T16:48:05;2.30;;;2.03;;
934;SDS011;454;53.254;10.400;2024-01-15T16:50:31;5.55;;;4.38;;
934;SDS011;454;53.254;10.400;2024-01-15T16:52:58;3.08;;;2.85;;
934;SDS011;454;53.254;10.400;2024-01-15T16:55:26;3.85;;;3.55;;
934;SDS011;454;53.254;10.400;2024-01-15T16:57:53;2.30;;;2.20;;
934;SDS011;454;53.254;10.400;2024-01-15T17:00:21;3.03;;;2.47;;
934;SDS011;454;53.254;10.400;2024-01-15T17:02:47;6.00;;;5.38;;
934;SDS011;454;53.254;10.400;2024-01-15T17:05:15;2.65;;;2.08;;
934;SDS011;454;53.254;10.400;2024-01-15T17:07:41;2.45;;;2.35;;
934;SDS011;454;53.254;10.400;2024-01-15T17:10:08;4.30;;;3.03;;
934;SDS011;454;53.254;10.400;2024-01-15T17:12:35;4.97;;;2.90;;
934;SDS011;454;53.254;10.400;2024-01-15T17:15:03;3.67;;;2.30;;
934;SDS011;454;53.254;10.400;2024-01-15T17:17:32;7.55;;;3.80;;
934;SDS011;454;53.254;10.400;2024-01-15T17:19:58;3.28;;;2.75;;
934;SDS011;454;53.254;10.400;2024-01-15T17:22:25;9.48;;;5.70;;
934;SDS011;454;53.254;10.400;2024-01-15T17:24:52;4.70;;;2.60;;
934;SDS011;454;53.254;10.400;2024-01-15T17:27:18;2.22;;;2.13;;
934;SDS011;454;53.254;10.400;2024-01-15T17:29:45;12.23;;;2.83;;
934;SDS011;454;53.254;10.400;2024-01-15T17:32:12;4.75;;;3.03;;
934;SDS011;454;53.254;10.400;2024-01-15T17:34:40;4.20;;;2.40;;
934;SDS011;454;53.254;10.400;2024-01-15T17:37:07;2.38;;;2.10;;
934;SDS011;454;53.254;10.400;2024-01-15T17:39:34;4.20;;;3.05;;
934;SDS011;454;53.254;10.400;2024-01-15T17:42:01;3.17;;;2.25;;
934;SDS011;454;53.254;10.400;2024-01-15T17:44:29;2.15;;;1.95;;
934;SDS011;454;53.254;10.400;2024-01-15T17:46:56;2.35;;;2.15;;
934;SDS011;454;53.254;10.400;2024-01-15T17:49:22;3.80;;;2.25;;
934;SDS011;454;53.254;10.400;2024-01-15T17:51:51;2.20;;;2.10;;
934;SDS011;454;53.254;10.400;2024-01-15T17:54:17;3.63;;;2.45;;
934;SDS011;454;53.254;10.400;2024-01-15T17:56:44;2.83;;;2.72;;
934;SDS011;454;53.254;10.400;2024-01-15T17:59:11;3.28;;;2.53;;
934;SDS011;454;53.254;10.400;2024-01-15T18:01:38;4.57;;;1.95;;
934;SDS011;454;53.254;10.400;2024-01-15T18:04:06;2.17;;;2.17;;
934;SDS011;454;53.254;10.400;2024-01-15T18:06:33;5.40;;;3.58;;
934;SDS011;454;53.254;10.400;2024-01-15T18:09:01;6.70;;;4.30;;
934;SDS011;454;53.254;10.400;2024-01-15T18:11:29;3.15;;;2.83;;
934;SDS011;454;53.254;10.400;2024-01-15T18:13:56;2.78;;;2.58;;
934;SDS011;454;53.254;10.400;2024-01-15T18:16:23;6.13;;;3.33;;
934;SDS011;454;53.254;10.400;2024-01-15T18:18:50;4.25;;;3.95;;
934;SDS011;454;53.254;10.400;2024-01-15T18:21:18;3.03;;;2.30;;
934;SDS011;454;53.254;10.400;2024-01-15T18:23:45;3.78;;;3.47;;
934;SDS011;454;53.254;10.400;2024-01-15T18:26:13;3.42;;;3.13;;
934;SDS011;454;53.254;10.400;2024-01-15T18:28:40;6.75;;;3.75;;
934;SDS011;454;53.254;10.400;2024-01-15T18:31:07;2.58;;;2.17;;
934;SDS011;454;53.254;10.400;2024-01-15T18:33:34;4.45;;;2.30;;
934;SDS011;454;53.254;10.400;2024-01-15T18:36:01;14.32;;;2.80;;
934;SDS011;454;53.254;10.400;2024-01-15T18:38:28;3.00;;;2.78;;
934;SDS011;454;53.254;10.400;2024-01-15T18:40:55;5.38;;;3.13;;
934;SDS011;454;53.254;10.400;2024-01-15T18:43:24;3.22;;;3.03;;
934;SDS011;454;53.254;10.400;2024-01-15T18:45:51;3.40;;;3.20;;
934;SDS011;454;53.254;10.400;2024-01-15T18:48:18;4.57;;;1.90;;
934;SDS011;454;53.254;10.400;2024-01-15T18:50:45;3.20;;;1.98;;
934;SDS011;454;53.254;10.400;2024-01-15T18:53:13;2.20;;;2.10;;
934;SDS011;454;53.254;10.400;2024-01-15T18:55:39;2.65;;;2.45;;
934;SDS011;454;53.254;10.400;2024-01-15T18:58:06;5.50;;;4.05;;
934;SDS011;454;53.254;10.400;2024-01-15T19:00:34;3.15;;;2.88;;
934;SDS011;454;53.254;10.400;2024-01-15T19:03:01;4.57;;;3.83;;
934;SDS011;454;53.254;10.400;2024-01-15T19:05:28;3.72;;;2.50;;
934;SDS011;454;53.254;10.400;2024-01-15T19:07:55;1.80;;;1.45;;
934;SDS011;454;53.254;10.400;2024-01-15T19:10:24;0.68;;;0.68;;
934;SDS011;454;53.254;10.400;2024-01-15T19:12:51;4.55;;;1.88;;
934;SDS011;454;53.254;10.400;2024-01-15T19:15:18;1.25;;;1.25;;
934;SDS011;454;53.254;10.400;2024-01-15T19:17:46;2.20;;;1.98;;
934;SDS011;454;53.254;10.400;2024-01-15T19:20:13;6.05;;;1.70;;
934;SDS011;454;53.254;10.400;2024-01-15T19:22:40;2.95;;;2.10;;
934;SDS011;454;53.254;10.400;2024-01-15T19:25:07;1.98;;;0.73;;
934;SDS011;454;53.254;10.400;2024-01-15T19:27:34;0.95;;;0.93;;
934;SDS011;454;53.254;10.400;2024-01-15T19:30:04;1.10;;;1.02;;
934;SDS011;454;53.254;10.400;2024-01-15T19:32:33;0.30;;;0.30;;
934;SDS011;454;53.254;10.400;2024-01-15T19:35:01;0.45;;;0.45;;
934;SDS011;454;53.254;10.400;2024-01-15T19:37:28;0.63;;;0.63;;
934;SDS011;454;53.254;10.400;2024-01-15T19:39:55;0.75;;;0.75;;
934;SDS011;454;53.254;10.400;2024-01-15T19:42:22;0.38;;;0.30;;
934;SDS011;454;53.254;10.400;2024-01-15T19:44:49;1.70;;;0.70;;
934;SDS011;454;53.254;10.400;2024-01-15T19:47:16;0.70;;;0.70;;
934;SDS011;454;53.254;10.400;2024-01-15T19:49:43;0.73;;;0.70;;
934;SDS011;454;53.254;10.400;2024-01-15T19:52:14;0.93;;;0.93;;
934;SDS011;454;53.254;10.400;2024-01-15T19:54:40;1.13;;;1.13;;
934;SDS011;454;53.254;10.400;2024-01-15T19:57:07;0.57;;;0.57;;
934;SDS011;454;53.254;10.400;2024-01-15T19:59:34;0.60;;;0.60;;
934;SDS011;454;53.254;10.400;2024-01-15T20:02:01;0.40;;;0.40;;
934;SDS011;454;53.254;10.400;2024-01-15T20:04:27;0.50;;;0.50;;
934;SDS011;454;53.254;10.400;2024-01-15T20:06:54;0.77;;;0.77;;
934;SDS011;454;53.254;10.400;2024-01-15T20:09:22;1.73;;;0.38;;
934;SDS011;454;53.254;10.400;2024-01-15T20:11:49;0.40;;;0.30;;
934;SDS011;454;53.254;10.400;2024-01-15T20:14:16;0.63;;;0.60;;
934;SDS011;454;53.254;10.400;2024-01-15T20:16:43;0.90;;;0.90;;
934;SDS011;454;53.254;10.400;2024-01-15T20:19:09;1.42;;;0.77;;
934;SDS011;454;53.254;10.400;2024-01-15T20:21:36;0.57;;;0.57;;
934;SDS011;454;53.254;10.400;2024-01-15T20:24:04;1.40;;;1.23;;
934;SDS011;454;53.254;10.400;2024-01-15T20:26:33;4.18;;;1.85;;
934;SDS011;454;53.254;10.400;2024-01-15T20:29:00;1.65;;;1.55;;
934;SDS011;454;53.254;10.400;2024-01-15T20:31:26;1.83;;;1.50;;
934;SDS011;454;53.254;10.400;2024-01-15T20:33:54;3.80;;;2.05;;